Аулие-Ата

Карта отелей и гостиниц, располагающихся рядом с аэропортом Аулие-Ата :

Аулие-Ата
Тараз
Жамбылская область 42° 51' 16.2612" N, 71° 18' 7.38" E
Код аэродрома ИКАО
UADD
Код аэродрома RU
УАДД
Координаты
N42.85452° E071.30205°
Превышение над уровнем моря
664
Основная полоса
13L/31R
Курс магнитный
132/312
Длина основной ВПП
2688
Ширина основной ВПП
45
Покрытие основной ВПП
Твёрдое (асфальтобетон)
Освещение ВПП
Постоянное
Тип: 
Аэродром
Класс аэродрома: 
Международный
Принадлежность: 
ГА
Статус: 
Действующий
Страна: 
Казахстан
Регион: 
Жамбылская область
Город: 
Тараз
Дополнительная информация: 
Горный. Совместного базирования. Эксплуатант: АО «Международный аэропорт Аулие-Ата». Способен принимать ВС Ил-76, Ту-154 и все более лёгкие ВС, а также вертолёты всех типов. Ранее базировалась военная авиация — 157-й вертолётный полк (вертолёты Ми-8 и Ми-26).
Погода: 

Авиационная погода в Аулие-Ата

Регион: 
Погода METAR: 
UADD 221800Z 23003MPS 9999 BKN038CB OVC100 01/M02 Q1021 NOSIG RMK QFE709/0945
Время наблюдения
2022-01-22T18:00:00Z
Температура C
1.0
Точка росы
-2.0
Направление ветра
230
Скорость ветра (узлы)
6
Метео видимость
6.21
Облачность
BKN
OVC
Нижняя граница облачности (футы)
3800
10000
Явления погоды
Условия полета
VFR
Аэропорт подробнее: 
BKN – значительная (рассеянная, разорванная) облачность; OVC – сплошная облачность;

Найти трансфер

С помощью этой формы Вы можете найти трансфер из аэропорта Аулие-Ата в город, аэропорт или вокзал:

Погода в аэропортах:

Авиационная погода в Храброво

Регион: 
Погода METAR: 
UMKK 221800Z 35006MPS 8000 2300E -SHSN SCT008 BKN016CB 01/M02 Q1023 R24/690195 NOSIG RMK QFE766/1021
Время наблюдения
2022-01-22T18:00:00Z
Температура C
1.0
Точка росы
-2.0
Направление ветра
350
Скорость ветра (узлы)
12
Метео видимость
4.97
Облачность
SCT
BKN
Нижняя граница облачности (футы)
800
1600
Явления погоды
-SHSN
Условия полета
MVFR
Аэропорт подробнее: 
SCT – разбросанная отдельная облачность; BKN – значительная (рассеянная, разорванная) облачность;
-SHSN - слабый ливневой снег;

Авиационная погода в Казани

Регион: 
Погода METAR: 
UWKD 221800Z 15007MPS 1900 R11/P2000N SN BLSN OVC021 M06/M08 Q1020 R11/451040 NOSIG RMK QFE755/1007
Время наблюдения
2022-01-22T18:00:00Z
Температура C
-6.0
Точка росы
-8.0
Направление ветра
150
Скорость ветра (узлы)
14
Метео видимость
1.18
Облачность
OVC
Нижняя граница облачности (футы)
2100
Явления погоды
SN BLSN
Условия полета
IFR
Аэропорт подробнее: 
OVC – сплошная облачность;
SN – снег, BLSN – метель низовая или общая;

Авиационная погода в Магнитогорске

Погода METAR: 
USCM 221800Z 31002MPS 4700 BR SCT040 M20/M21 Q1028 R18/090060 TEMPO 0300 FZFG VV002 RMK QFE733
Время наблюдения
2022-01-22T18:00:00Z
Температура C
-20.0
Точка росы
-21.0
Направление ветра
310
Скорость ветра (узлы)
4
Метео видимость
2.92
Облачность
SCT
Нижняя граница облачности (футы)
4000
Явления погоды
BR
Условия полета
IFR
Аэропорт подробнее: 
SCT – разбросанная отдельная облачность;
BR – дымка (видимость от 1 до 9 км);

Авиационная погода в Москва - Шереметьево

Погода METAR: 
UUEE 221800Z 07004MPS 9000 4000NE -SN OVC008 M04/M06 Q1011 R06R/590530 R06C/590526 R06L/590530 NOSIG
Время наблюдения
2022-01-22T18:00:00Z
Температура C
-4.0
Точка росы
-6.0
Направление ветра
70
Скорость ветра (узлы)
8
Метео видимость
5.59
Облачность
OVC
Нижняя граница облачности (футы)
800
Явления погоды
-SN
Условия полета
IFR
Аэропорт подробнее: 
OVC – сплошная облачность;
-SN – слабый снег;